Time;durP1;ratioP1;P1;durP2;ratioP2;P2;SDS_P1;SDS_P2;PMS_P1;PMS_P2;Temp;Humidity;BMP_temperature;BMP_pressure;BME280_temperature;BME280_humidity;BME280_pressure;Samples;Min_cycle;Max_cycle;Signal;HPM_P1;HPM_P2
2021/12/24 00:00:23;;;;;;;0.00;0.00;;;5.80;77.70;;;;;;4164562;28;20142;-61
2021/12/24 00:02:49;;;;;;;0.00;0.00;;;5.80;77.80;;;;;;4164294;28;20046;-61
2021/12/24 00:05:11;;;;;;;0.00;0.00;;;5.70;77.90;;;;;;4178242;28;20164;-61
2021/12/24 00:07:37;;;;;;;0.00;0.00;;;5.70;77.90;;;;;;4163998;28;20582;-61
2021/12/24 00:09:59;;;;;;;0.00;0.00;;;5.70;77.60;;;;;;4177713;28;20084;-61
2021/12/24 00:12:24;;;;;;;0.00;0.00;;;5.50;77.70;;;;;;4163697;28;20105;-61
2021/12/24 00:14:51;;;;;;;0.00;0.00;;;5.50;77.80;;;;;;4178778;28;20083;-61
2021/12/24 00:17:16;;;;;;;0.00;0.00;;;5.60;77.40;;;;;;4178941;28;20055;-60
2021/12/24 00:19:47;;;;;;;0.00;0.00;;;5.70;76.80;;;;;;4178999;28;20045;-60
2021/12/24 00:22:46;;;;;;;0.00;0.00;;;5.70;76.40;;;;;;4192192;28;20049;-61
2021/12/24 00:35:45;;;;;;;0.00;0.00;;;5.30;78.20;;;;;;4178597;28;20052;-61
2021/12/24 00:38:12;;;;;;;0.00;0.00;;;5.40;78.30;;;;;;4161644;28;20061;-61
2021/12/24 00:40:41;;;;;;;0.00;0.00;;;5.40;78.30;;;;;;4148400;28;20515;-61
2021/12/24 00:43:05;;;;;;;0.00;0.00;;;5.50;78.40;;;;;;4162202;28;20153;-60
2021/12/24 00:45:39;;;;;;;0.00;0.00;;;5.50;78.60;;;;;;4162168;28;20503;-61
2021/12/24 00:48:04;;;;;;;0.00;0.00;;;5.50;78.40;;;;;;4175993;28;20076;-61
2021/12/24 00:50:35;;;;;;;0.00;0.00;;;5.40;78.40;;;;;;4162220;28;20053;-62
2021/12/24 00:53:03;;;;;;;0.00;0.00;;;5.40;78.50;;;;;;4161941;28;20079;-61
2021/12/24 00:55:28;;;;;;;0.00;0.00;;;5.50;78.40;;;;;;4162004;28;20121;-62
2021/12/24 00:57:53;;;;;;;0.00;0.00;;;5.50;78.10;;;;;;4147996;28;20094;-61
2021/12/24 01:00:29;;;;;;;0.00;0.00;;;5.60;78.10;;;;;;4161803;28;20065;-60
2021/12/24 01:02:56;;;;;;;0.00;0.00;;;5.60;78.40;;;;;;4148222;28;20045;-61
2021/12/24 01:05:20;;;;;;;0.00;0.00;;;5.40;78.70;;;;;;4147992;28;20053;-62
2021/12/24 01:07:49;;;;;;;0.00;0.00;;;5.40;79.30;;;;;;4147942;28;20045;-61
2021/12/24 01:10:13;;;;;;;0.00;0.00;;;5.40;79.00;;;;;;4191602;28;20041;-61
2021/12/24 01:12:36;;;;;;;0.00;0.00;;;5.30;79.40;;;;;;4178206;28;20052;-61
2021/12/24 01:14:59;;;;;;;0.00;0.00;;;5.30;79.00;;;;;;4178186;28;20132;-61
2021/12/24 01:17:47;;;;;;;0.00;0.00;;;5.20;78.00;;;;;;4178075;28;20052;-61
2021/12/24 01:20:22;;;;;;;0.00;0.00;;;5.20;78.00;;;;;;4163715;28;20045;-61
2021/12/24 01:41:20;;;;;;;0.00;0.00;;;4.80;79.90;;;;;;4151722;28;20054;-60
2021/12/24 01:43:43;;;;;;;0.00;0.00;;;5.00;79.10;;;;;;4146811;28;20049;-60
2021/12/24 01:46:05;;;;;;;0.00;0.00;;;5.10;78.80;;;;;;4163515;28;20593;-61
2021/12/24 01:48:28;;;;;;;0.00;0.00;;;5.20;78.40;;;;;;4150470;28;20095;-61
2021/12/24 01:50:53;;;;;;;0.00;0.00;;;5.20;78.10;;;;;;4177549;28;20395;-61
2021/12/24 01:53:23;;;;;;;0.00;0.00;;;5.10;78.20;;;;;;4163686;28;20438;-60
2021/12/24 01:55:48;;;;;;;0.00;0.00;;;4.90;78.50;;;;;;4163423;28;20507;-62
2021/12/24 01:58:11;;;;;;;0.00;0.00;;;4.90;79.10;;;;;;4177487;28;20041;-60
2021/12/24 02:00:44;;;;;;;0.00;0.00;;;4.80;79.90;;;;;;4177259;28;20110;-60
2021/12/24 02:03:09;;;;;;;0.00;0.00;;;4.90;80.10;;;;;;4177499;28;20498;-60
2021/12/24 02:05:32;;;;;;;0.00;0.00;;;5.00;80.40;;;;;;4163694;28;20081;-60
2021/12/24 02:07:54;;;;;;;0.00;0.00;;;4.90;80.90;;;;;;4177082;28;20048;-60
2021/12/24 02:10:18;;;;;;;0.00;0.00;;;4.70;80.60;;;;;;4163603;28;20499;-60
2021/12/24 02:12:41;;;;;;;0.00;0.00;;;4.80;80.50;;;;;;4177342;28;20124;-60
2021/12/24 02:15:09;;;;;;;0.00;0.00;;;4.90;80.80;;;;;;4163470;28;20045;-61
2021/12/24 02:17:56;;;;;;;0.00;0.00;;;5.00;81.20;;;;;;4163533;28;20549;-60
2021/12/24 02:28:38;;;;;;;0.00;0.00;;;4.90;78.80;;;;;;4177292;28;20041;-60
2021/12/24 02:31:03;;;;;;;0.00;0.00;;;5.00;77.80;;;;;;4177219;28;20076;-59
2021/12/24 02:33:25;;;;;;;0.00;0.00;;;5.10;77.60;;;;;;4163220;28;20499;-60
2021/12/24 02:35:48;;;;;;;0.00;0.00;;;5.10;77.40;;;;;;4177091;28;20518;-60
2021/12/24 02:38:11;;;;;;;0.00;0.00;;;5.00;77.40;;;;;;4163314;28;20135;-60
2021/12/24 02:40:34;;;;;;;0.00;0.00;;;5.00;77.30;;;;;;4163116;28;20129;-60
2021/12/24 02:42:58;;;;;;;0.00;0.00;;;4.90;77.30;;;;;;4177234;28;20442;-60
2021/12/24 02:45:22;;;;;;;0.00;0.00;;;4.90;77.60;;;;;;4136877;28;20056;-60
2021/12/24 02:48:13;;;;;;;0.00;0.00;;;4.90;77.70;;;;;;4160900;28;20072;-60
2021/12/24 02:56:02;;;;;;;0.00;0.00;;;5.00;77.70;;;;;;4178437;28;20045;-60
2021/12/24 02:58:24;;;;;;;0.00;0.00;;;5.00;77.60;;;;;;4166684;28;20103;-60
2021/12/24 03:00:47;;;;;;;0.00;0.00;;;5.00;77.90;;;;;;4180135;28;20063;-60
2021/12/24 03:03:10;;;;;;;0.00;0.00;;;5.00;77.90;;;;;;4180458;28;20076;-60
2021/12/24 03:05:32;;;;;;;0.00;0.00;;;5.00;78.10;;;;;;4166289;28;20041;-60
2021/12/24 03:07:55;;;;;;;0.00;0.00;;;5.00;78.20;;;;;;4166027;28;20038;-60
2021/12/24 03:10:21;;;;;;;0.00;0.00;;;5.10;77.90;;;;;;4166210;28;20127;-60
2021/12/24 03:12:49;;;;;;;0.00;0.00;;;5.20;77.90;;;;;;4180251;28;20129;-60
2021/12/24 03:15:14;;;;;;;0.00;0.00;;;5.10;78.10;;;;;;4179903;28;20059;-60
2021/12/24 03:17:36;;;;;;;0.00;0.00;;;4.90;78.60;;;;;;4166162;28;20081;-60
2021/12/24 03:20:06;;;;;;;0.00;0.00;;;4.90;78.80;;;;;;4165558;28;20095;-60
2021/12/24 03:25:09;;;;;;;0.00;0.00;;;4.70;79.60;;;;;;4165832;28;20057;-60
2021/12/24 03:27:32;;;;;;;0.00;0.00;;;4.50;80.50;;;;;;4165930;28;20053;-60
2021/12/24 03:29:57;;;;;;;0.00;0.00;;;4.40;80.90;;;;;;4165455;28;20507;-60
2021/12/24 03:32:19;;;;;;;0.00;0.00;;;4.60;80.40;;;;;;4166248;28;20226;-60
2021/12/24 03:34:43;;;;;;;0.00;0.00;;;4.70;80.00;;;;;;4179401;28;20048;-60
2021/12/24 03:37:06;;;;;;;0.00;0.00;;;4.80;79.70;;;;;;4165872;28;20458;-60
2021/12/24 03:39:29;;;;;;;0.00;0.00;;;4.80;79.10;;;;;;4179501;28;20080;-61
2021/12/24 03:41:52;;;;;;;0.00;0.00;;;4.90;79.00;;;;;;4179012;28;20041;-60
2021/12/24 03:44:17;;;;;;;0.00;0.00;;;4.90;78.70;;;;;;4165737;28;20053;-60
2021/12/24 03:46:54;;;;;;;0.00;0.00;;;4.80;78.90;;;;;;4165641;28;20049;-60
2021/12/24 03:49:23;;;;;;;0.00;0.00;;;4.90;78.90;;;;;;4165654;28;20046;-59
2021/12/24 03:51:59;;;;;;;0.00;0.00;;;4.90;78.80;;;;;;4165375;28;20475;-59
2021/12/24 03:57:03;;;;;;;0.00;0.00;;;5.10;78.30;;;;;;4179485;28;20530;-59
2021/12/24 03:59:48;;;;;;;0.00;0.00;;;5.00;78.10;;;;;;4178987;28;20494;-60
2021/12/24 04:02:30;;;;;;;0.00;0.00;;;4.90;78.40;;;;;;4179460;28;20059;-59
2021/12/24 04:05:11;;;;;;;0.00;0.00;;;4.80;78.70;;;;;;4179312;28;20159;-60
2021/12/24 04:08:09;;;;;;;0.00;0.00;;;4.90;78.70;;;;;;4177927;28;20395;-60
2021/12/24 04:10:50;;;;;;;0.00;0.00;;;4.80;79.20;;;;;;4178868;28;20085;-59
2021/12/24 04:13:33;;;;;;;0.00;0.00;;;4.70;79.60;;;;;;4179256;28;20048;-60
2021/12/24 04:15:57;;;;;;;0.00;0.00;;;4.60;80.10;;;;;;4164978;28;20419;-59
2021/12/24 04:26:13;;;;;;;0.00;0.00;;;4.60;81.20;;;;;;4178583;28;20124;-61
2021/12/24 04:28:36;;;;;;;0.00;0.00;;;4.60;81.10;;;;;;4179106;28;20072;-60
2021/12/24 04:31:00;;;;;;;0.00;0.00;;;4.50;81.20;;;;;;4164861;28;20045;-60
2021/12/24 04:33:32;;;;;;;0.00;0.00;;;4.50;81.50;;;;;;4178804;28;20057;-61
2021/12/24 04:36:07;;;;;;;0.00;0.00;;;4.60;81.10;;;;;;4164427;28;20077;-61
2021/12/24 04:38:39;;;;;;;0.00;0.00;;;4.60;81.00;;;;;;4178555;28;20065;-61
2021/12/24 04:51:54;;;;;;;0.00;0.00;;;4.50;81.90;;;;;;4147859;28;20092;-61
2021/12/24 05:05:22;;;;;;;0.00;0.00;;;4.40;81.70;;;;;;4149618;28;20049;-61
2021/12/24 05:10:16;;;;;;;0.00;0.00;;;4.40;81.70;;;;;;4161792;28;20049;-61
2021/12/24 05:12:39;;;;;;;0.00;0.00;;;4.30;81.80;;;;;;4140751;28;20489;-61
2021/12/24 05:15:10;;;;;;;0.00;0.00;;;4.30;82.10;;;;;;4131796;28;20112;-59
2021/12/24 05:18:07;;;;;;;0.00;0.00;;;4.40;81.80;;;;;;4174707;28;20056;-59
2021/12/24 05:23:31;;;;;;;0.00;0.00;;;4.40;81.60;;;;;;4131653;28;20054;-62
2021/12/24 05:25:54;;;;;;;0.00;0.00;;;4.40;81.40;;;;;;4144985;28;20038;-62
2021/12/24 05:28:17;;;;;;;0.00;0.00;;;4.40;81.40;;;;;;4145127;28;20072;-59
2021/12/24 05:30:40;;;;;;;0.00;0.00;;;4.40;81.50;;;;;;4131283;28;20042;-61
2021/12/24 05:33:03;;;;;;;0.00;0.00;;;4.40;81.50;;;;;;4145094;28;20536;-62
2021/12/24 05:35:26;;;;;;;0.00;0.00;;;4.40;81.30;;;;;;4144950;28;20057;-62
2021/12/24 05:37:48;;;;;;;0.00;0.00;;;4.40;80.80;;;;;;4144509;28;20081;-62
2021/12/24 05:40:12;;;;;;;0.00;0.00;;;4.50;80.50;;;;;;4131594;28;20042;-60
2021/12/24 05:42:35;;;;;;;0.00;0.00;;;4.50;80.00;;;;;;4145053;28;20129;-60
2021/12/24 05:45:04;;;;;;;0.00;0.00;;;4.60;79.80;;;;;;4131334;28;20467;-60
2021/12/24 05:47:50;;;;;;;0.00;0.00;;;4.60;79.80;;;;;;4159814;28;20052;-61
2021/12/24 05:50:13;;;;;;;0.00;0.00;;;4.60;79.80;;;;;;4144879;28;20124;-60
2021/12/24 05:52:40;;;;;;;0.00;0.00;;;4.60;79.80;;;;;;4158563;28;20037;-60
2021/12/24 05:55:18;;;;;;;0.00;0.00;;;4.50;80.20;;;;;;4144978;28;20054;-60
2021/12/24 05:57:43;;;;;;;0.00;0.00;;;4.50;80.40;;;;;;4144672;28;20423;-60
2021/12/24 06:00:08;;;;;;;0.00;0.00;;;4.50;81.00;;;;;;4150569;28;20060;-61
2021/12/24 06:02:34;;;;;;;0.00;0.00;;;4.60;80.80;;;;;;4144703;28;20056;-61
2021/12/24 06:04:57;;;;;;;0.00;0.00;;;4.80;80.50;;;;;;4144666;28;20076;-61
2021/12/24 06:07:19;;;;;;;0.00;0.00;;;4.80;80.70;;;;;;4144642;28;20543;-61
2021/12/24 06:09:41;;;;;;;0.00;0.00;;;4.80;80.50;;;;;;4144694;28;20136;-60
2021/12/24 06:12:04;;;;;;;0.00;0.00;;;4.90;80.40;;;;;;4157960;28;20454;-60
2021/12/24 06:14:27;;;;;;;0.00;0.00;;;4.90;80.10;;;;;;4144441;28;20462;-60
2021/12/24 06:17:15;;;;;;;0.00;0.00;;;4.80;80.40;;;;;;4144636;28;20125;-60
2021/12/24 06:19:32;;;;;;;0.00;0.00;;;4.80;80.50;;;;;;4158332;28;20053;-60
2021/12/24 06:21:58;;;;;;;0.00;0.00;;;4.90;80.50;;;;;;4159140;28;20059;-61
2021/12/24 06:24:21;;;;;;;0.00;0.00;;;4.80;80.40;;;;;;4144532;28;20427;-61
2021/12/24 06:26:43;;;;;;;0.00;0.00;;;4.70;80.70;;;;;;4144801;28;20150;-61
2021/12/24 06:29:05;;;;;;;0.00;0.00;;;4.70;81.00;;;;;;4144557;28;20057;-61
2021/12/24 06:31:29;;;;;;;0.00;0.00;;;4.80;80.80;;;;;;4146856;28;20034;-61
2021/12/24 06:33:55;;;;;;;0.00;0.00;;;4.90;80.60;;;;;;4135383;28;20798;-61
2021/12/24 06:36:17;;;;;;;0.00;0.00;;;4.90;80.50;;;;;;4159925;28;20133;-61
2021/12/24 06:38:40;;;;;;;0.00;0.00;;;5.00;80.60;;;;;;4147413;28;20064;-61
2021/12/24 06:41:03;;;;;;;0.00;0.00;;;4.90;80.90;;;;;;4147597;28;20463;-60
2021/12/24 06:43:26;;;;;;;0.00;0.00;;;5.00;80.80;;;;;;4161415;28;20057;-61
2021/12/24 06:45:49;;;;;;;0.00;0.00;;;4.90;81.20;;;;;;4176911;28;20041;-61
2021/12/24 06:48:12;;;;;;;0.00;0.00;;;5.00;81.50;;;;;;4147666;28;20116;-61
2021/12/24 06:50:34;;;;;;;0.00;0.00;;;4.90;81.30;;;;;;4147447;28;20539;-61
2021/12/24 06:52:57;;;;;;;0.00;0.00;;;5.00;81.40;;;;;;4133590;28;20058;-61
2021/12/24 06:55:21;;;;;;;0.00;0.00;;;5.00;81.30;;;;;;4147363;28;20713;-61
2021/12/24 06:57:49;;;;;;;0.00;0.00;;;5.10;81.30;;;;;;4148987;28;20053;-62
2021/12/24 07:00:16;;;;;;;0.00;0.00;;;5.10;81.50;;;;;;4133888;28;20046;-61
2021/12/24 07:02:39;;;;;;;0.00;0.00;;;5.00;81.30;;;;;;4133434;28;20155;-61
2021/12/24 07:05:04;;;;;;;0.00;0.00;;;5.00;81.30;;;;;;4147434;28;20073;-60
2021/12/24 07:07:29;;;;;;;0.00;0.00;;;5.10;81.20;;;;;;4146965;28;20042;-60
2021/12/24 07:09:51;;;;;;;0.00;0.00;;;5.20;81.30;;;;;;4133329;28;20074;-60
2021/12/24 07:12:14;;;;;;;0.00;0.00;;;5.20;82.00;;;;;;4147002;28;20034;-60
2021/12/24 07:14:37;;;;;;;0.00;0.00;;;5.20;81.70;;;;;;4147108;28;20071;-60
2021/12/24 07:17:00;;;;;;;0.00;0.00;;;5.30;81.70;;;;;;4133643;28;20045;-60
2021/12/24 07:19:22;;;;;;;0.00;0.00;;;5.30;81.80;;;;;;4160754;28;20426;-60
2021/12/24 07:21:45;;;;;;;0.00;0.00;;;5.30;81.60;;;;;;4146791;28;20058;-60
2021/12/24 07:24:08;;;;;;;0.00;0.00;;;5.40;81.60;;;;;;4160135;28;20045;-61
2021/12/24 07:26:31;;;;;;;0.00;0.00;;;5.40;81.70;;;;;;4160706;28;20136;-61
2021/12/24 07:28:54;;;;;;;0.00;0.00;;;5.40;82.00;;;;;;4146935;28;20136;-61
2021/12/24 07:31:16;;;;;;;0.00;0.00;;;5.50;81.80;;;;;;4160412;28;20084;-61
2021/12/24 07:33:39;;;;;;;0.00;0.00;;;5.50;81.70;;;;;;4162322;28;20056;-61
2021/12/24 07:36:02;;;;;;;0.00;0.00;;;5.40;82.10;;;;;;4162731;28;20096;-61
2021/12/24 07:38:24;;;;;;;0.00;0.00;;;5.30;82.30;;;;;;4148933;28;20164;-60
2021/12/24 07:40:47;;;;;;;0.00;0.00;;;5.30;82.30;;;;;;4162963;28;20542;-60
2021/12/24 07:43:09;;;;;;;0.00;0.00;;;5.20;82.10;;;;;;4163168;28;20128;-61
2021/12/24 07:45:31;;;;;;;0.00;0.00;;;5.10;82.20;;;;;;4163076;28;20050;-60
2021/12/24 07:48:14;;;;;;;0.00;0.00;;;5.00;82.20;;;;;;4162595;28;20049;-61
2021/12/24 07:53:04;;;;;;;0.00;0.00;;;5.00;81.80;;;;;;4162581;28;20133;-60
2021/12/24 07:55:27;;;;;;;0.00;0.00;;;5.10;81.70;;;;;;4162764;28;20053;-60
2021/12/24 07:57:51;;;;;;;0.00;0.00;;;5.10;81.80;;;;;;4162551;28;20072;-61
2021/12/24 08:00:14;;;;;;;0.00;0.00;;;5.10;82.70;;;;;;4163074;28;20516;-60
2021/12/24 08:02:36;;;;;;;0.00;0.00;;;5.00;83.40;;;;;;4162843;28;20415;-60
2021/12/24 08:05:00;;;;;;;0.00;0.00;;;5.10;83.40;;;;;;4162746;28;20058;-61
2021/12/24 08:07:22;;;;;;;0.00;0.00;;;5.10;84.00;;;;;;4149058;28;20045;-61
2021/12/24 08:09:44;;;;;;;0.00;0.00;;;5.10;83.80;;;;;;4162564;28;20053;-60
2021/12/24 08:12:09;;;;;;;0.00;0.00;;;5.20;83.90;;;;;;4161879;28;20466;-61
2021/12/24 08:14:32;;;;;;;0.00;0.00;;;5.20;83.90;;;;;;4162649;28;20049;-60
2021/12/24 08:16:54;;;;;;;0.00;0.00;;;5.30;83.90;;;;;;4162833;28;20117;-60
2021/12/24 08:19:18;;;;;;;0.00;0.00;;;5.30;83.60;;;;;;4162365;28;20154;-64
2021/12/24 08:21:40;;;;;;;0.00;0.00;;;5.30;83.50;;;;;;4162340;28;20107;-68
2021/12/24 08:24:03;;;;;;;0.00;0.00;;;5.30;83.60;;;;;;4159826;28;20551;-61
2021/12/24 08:26:29;;;;;;;0.00;0.00;;;5.20;84.10;;;;;;4155487;28;20046;-66
2021/12/24 08:28:51;;;;;;;0.00;0.00;;;5.30;84.00;;;;;;4145761;28;20046;-63
2021/12/24 08:31:14;;;;;;;0.00;0.00;;;5.40;83.40;;;;;;4132412;28;20042;-67
2021/12/24 08:33:36;;;;;;;0.00;0.00;;;5.30;83.50;;;;;;4145966;28;20111;-67
2021/12/24 08:35:58;;;;;;;0.00;0.00;;;5.40;83.40;;;;;;4159860;28;20060;-67
2021/12/24 08:38:21;;;;;;;0.00;0.00;;;5.40;83.50;;;;;;4145568;28;20068;-67
2021/12/24 08:40:43;;;;;;;0.00;0.00;;;5.50;83.50;;;;;;4145724;28;20120;-59
2021/12/24 08:43:05;;;;;;;0.00;0.00;;;5.70;83.30;;;;;;4145791;28;20502;-68
2021/12/24 08:45:28;;;;;;;0.00;0.00;;;5.80;83.00;;;;;;4159630;28;20096;-68
2021/12/24 08:47:51;;;;;;;0.00;0.00;;;5.90;82.30;;;;;;4151232;28;20091;-67
2021/12/24 08:50:13;;;;;;;0.00;0.00;;;6.00;81.80;;;;;;4176322;28;20124;-70
2021/12/24 08:52:36;;;;;;;0.00;0.00;;;6.10;81.80;;;;;;4161726;28;20041;-69
2021/12/24 08:54:58;;;;;;;0.00;0.00;;;6.20;81.60;;;;;;4175581;28;20037;-68
2021/12/24 08:57:23;;;;;;;0.00;0.00;;;6.30;81.50;;;;;;4187678;28;20044;-62
2021/12/24 08:59:46;;;;;;;0.00;0.00;;;6.40;81.50;;;;;;4183340;28;20036;-66
2021/12/24 09:02:11;;;;;;;0.00;0.00;;;6.40;81.60;;;;;;4177959;28;20240;-70
2021/12/24 09:04:34;;;;;;;0.00;0.00;;;6.50;81.60;;;;;;4178229;28;20057;-67
2021/12/24 09:06:56;;;;;;;0.00;0.00;;;6.50;81.20;;;;;;4181717;28;20044;-68
2021/12/24 09:09:19;;;;;;;0.00;0.00;;;6.40;81.60;;;;;;4175316;28;20052;-67
2021/12/24 09:11:43;;;;;;;0.00;0.00;;;6.30;81.70;;;;;;4177064;28;20479;-69
2021/12/24 09:14:05;;;;;;;0.00;0.00;;;6.20;82.10;;;;;;4176392;28;20044;-66
2021/12/24 09:16:29;;;;;;;0.00;0.00;;;6.20;82.40;;;;;;4178033;28;20048;-69
2021/12/24 09:18:59;;;;;;;0.00;0.00;;;6.30;82.30;;;;;;4164231;28;20045;-68
2021/12/24 09:21:23;;;;;;;0.00;0.00;;;6.30;82.50;;;;;;4177564;28;20087;-68
2021/12/24 09:23:48;;;;;;;0.00;0.00;;;6.10;82.90;;;;;;4177936;28;20045;-67
2021/12/24 09:26:29;;;;;;;0.00;0.00;;;5.90;83.90;;;;;;4177336;28;20449;-68
2021/12/24 09:28:51;;;;;;;0.00;0.00;;;6.00;84.20;;;;;;4184011;28;20044;-63
2021/12/24 09:31:13;;;;;;;0.00;0.00;;;6.20;83.50;;;;;;4165399;28;20049;-58
2021/12/24 09:33:36;;;;;;;0.00;0.00;;;6.30;83.30;;;;;;4161589;28;20099;-65
2021/12/24 09:35:58;;;;;;;0.00;0.00;;;6.40;83.40;;;;;;4176886;28;20114;-59
2021/12/24 09:38:21;;;;;;;0.00;0.00;;;6.50;83.30;;;;;;4177500;28;20053;-68
2021/12/24 09:40:43;;;;;;;0.00;0.00;;;6.60;83.10;;;;;;4163762;28;20103;-68
2021/12/24 09:43:06;;;;;;;0.00;0.00;;;6.50;83.40;;;;;;4191448;28;20052;-62
2021/12/24 09:45:28;;;;;;;0.00;0.00;;;6.50;83.40;;;;;;4191446;28;20044;-67
2021/12/24 09:47:51;;;;;;;0.00;0.00;;;6.50;83.10;;;;;;4176902;28;20111;-67
2021/12/24 09:50:17;;;;;;;0.00;0.00;;;6.50;82.80;;;;;;4191054;28;20102;-60
2021/12/24 09:52:42;;;;;;;0.00;0.00;;;6.50;83.10;;;;;;4191309;28;20110;-64
2021/12/24 09:55:10;;;;;;;0.00;0.00;;;6.50;83.20;;;;;;4191342;28;20076;-71
2021/12/24 09:57:32;;;;;;;0.00;0.00;;;6.40;83.50;;;;;;4191262;28;20040;-61
2021/12/24 09:59:55;;;;;;;0.00;0.00;;;6.60;83.60;;;;;;4175782;28;20048;-63
2021/12/24 10:02:19;;;;;;;0.00;0.00;;;6.70;83.00;;;;;;4160885;28;20563;-66
2021/12/24 10:04:44;;;;;;;0.00;0.00;;;6.80;82.70;;;;;;4160169;28;20092;-60
2021/12/24 10:07:10;;;;;;;0.00;0.00;;;6.80;82.70;;;;;;4174622;28;20041;-59
2021/12/24 10:09:36;;;;;;;0.00;0.00;;;6.80;82.50;;;;;;4160623;28;20491;-70
2021/12/24 10:12:02;;;;;;;0.00;0.00;;;6.80;82.40;;;;;;4173973;28;20417;-66
2021/12/24 10:14:33;;;;;;;0.00;0.00;;;6.80;82.80;;;;;;4174920;28;20048;-67
2021/12/24 10:16:55;;;;;;;0.00;0.00;;;6.80;82.90;;;;;;4174161;28;20087;-63
2021/12/24 10:19:19;;;;;;;0.00;0.00;;;6.70;83.50;;;;;;4160436;28;20072;-63
2021/12/24 10:21:44;;;;;;;0.00;0.00;;;6.70;83.30;;;;;;4174138;28;20052;-66
2021/12/24 10:24:14;;;;;;;0.00;0.00;;;6.80;83.20;;;;;;4173887;28;20045;-61
2021/12/24 10:26:42;;;;;;;0.00;0.00;;;6.70;83.70;;;;;;4160768;28;20041;-62
2021/12/24 10:29:11;;;;;;;0.00;0.00;;;6.60;84.50;;;;;;4147090;28;20042;-61
2021/12/24 10:31:51;;;;;;;0.00;0.00;;;6.50;84.80;;;;;;4173950;28;20056;-69
2021/12/24 10:34:21;;;;;;;0.00;0.00;;;6.40;85.60;;;;;;4176854;28;20048;-69
2021/12/24 10:36:54;;;;;;;0.00;0.00;;;6.30;86.10;;;;;;4176957;28;20072;-69
2021/12/24 10:39:18;;;;;;;0.00;0.00;;;6.30;87.30;;;;;;4176728;28;20040;-66
2021/12/24 10:41:45;;;;;;;0.00;0.00;;;6.50;86.70;;;;;;4176799;28;20049;-64
2021/12/24 10:44:24;;;;;;;0.00;0.00;;;6.60;86.80;;;;;;4176518;28;20036;-67
2021/12/24 10:47:02;;;;;;;0.00;0.00;;;6.70;86.70;;;;;;4174103;28;20045;-70
2021/12/24 10:49:53;;;;;;;0.00;0.00;;;6.90;86.50;;;;;;4174222;28;20067;-64
2021/12/24 10:54:56;;;;;;;0.00;0.00;;;6.90;86.90;;;;;;4157980;28;20455;-68
2021/12/24 10:57:23;;;;;;;0.00;0.00;;;6.80;87.60;;;;;;4143986;28;20054;-60
2021/12/24 10:59:50;;;;;;;0.00;0.00;;;6.90;87.40;;;;;;4144042;28;20057;-62
2021/12/24 11:02:12;;;;;;;0.00;0.00;;;6.80;87.70;;;;;;4156074;28;20034;-60
2021/12/24 11:04:36;;;;;;;0.00;0.00;;;6.50;88.60;;;;;;4167424;28;20528;-62
2021/12/24 11:06:59;;;;;;;0.00;0.00;;;6.50;89.00;;;;;;4174252;28;20051;-62
2021/12/24 11:09:21;;;;;;;0.00;0.00;;;6.50;89.30;;;;;;4160287;28;20057;-60
2021/12/24 11:11:45;;;;;;;0.00;0.00;;;6.60;88.80;;;;;;4164579;28;20136;-59
2021/12/24 11:14:20;;;;;;;0.00;0.00;;;6.70;88.70;;;;;;4159681;28;20423;-61
2021/12/24 11:16:45;;;;;;;0.00;0.00;;;6.70;88.20;;;;;;4175116;28;20394;-63
2021/12/24 11:19:07;;;;;;;0.00;0.00;;;6.70;87.70;;;;;;4177032;28;20129;-61
2021/12/24 11:21:32;;;;;;;0.00;0.00;;;6.70;87.60;;;;;;4162839;28;20103;-61
2021/12/24 11:23:55;;;;;;;0.00;0.00;;;6.60;87.70;;;;;;4179269;28;20059;-61
2021/12/24 11:26:29;;;;;;;0.00;0.00;;;6.60;87.60;;;;;;4179874;28;20037;-60
2021/12/24 11:28:51;;;;;;;0.00;0.00;;;6.80;87.60;;;;;;4179887;28;20040;-61
2021/12/24 11:31:21;;;;;;;0.00;0.00;;;7.00;87.50;;;;;;4165480;28;20747;-59
2021/12/24 11:33:45;;;;;;;0.00;0.00;;;7.20;87.00;;;;;;4193665;28;20041;-59
2021/12/24 11:36:10;;;;;;;0.00;0.00;;;7.40;86.50;;;;;;4162380;28;20569;-60
2021/12/24 11:38:40;;;;;;;0.00;0.00;;;7.40;86.30;;;;;;4163067;28;20103;-59
2021/12/24 11:41:05;;;;;;;0.00;0.00;;;7.40;86.10;;;;;;4162774;28;20527;-60
2021/12/24 11:43:34;;;;;;;0.00;0.00;;;7.30;86.90;;;;;;4163013;28;20098;-61
2021/12/24 11:45:58;;;;;;;0.00;0.00;;;7.20;87.20;;;;;;4176427;28;20095;-69
2021/12/24 11:48:20;;;;;;;0.00;0.00;;;7.20;87.40;;;;;;4162900;28;20045;-64
2021/12/24 11:50:43;;;;;;;0.00;0.00;;;7.10;87.50;;;;;;4162758;28;20056;-60
2021/12/24 11:53:09;;;;;;;0.00;0.00;;;7.00;87.60;;;;;;4162831;28;20068;-59
2021/12/24 11:55:36;;;;;;;0.00;0.00;;;7.10;87.90;;;;;;4176631;28;20052;-63
2021/12/24 11:58:05;;;;;;;0.00;0.00;;;7.30;87.50;;;;;;4162371;28;20100;-62
2021/12/24 12:00:49;;;;;;;0.00;0.00;;;7.30;87.60;;;;;;4163053;28;20052;-62
2021/12/24 12:03:35;;;;;;;0.00;0.00;;;7.20;88.30;;;;;;4176566;28;20057;-64
2021/12/24 12:05:58;;;;;;;0.00;0.00;;;7.10;87.60;;;;;;4162369;28;20053;-61
2021/12/24 12:08:27;;;;;;;0.00;0.00;;;7.10;87.80;;;;;;4149059;28;20584;-65
2021/12/24 12:10:59;;;;;;;0.00;0.00;;;7.10;88.00;;;;;;4162308;28;20049;-61
2021/12/24 12:13:47;;;;;;;0.00;0.00;;;7.20;88.00;;;;;;4162537;28;20045;-64
2021/12/24 12:16:16;;;;;;;0.00;0.00;;;7.20;88.00;;;;;;4162088;28;20045;-61
2021/12/24 12:18:47;;;;;;;0.00;0.00;;;7.30;88.10;;;;;;4162596;28;20053;-61
2021/12/24 12:21:33;;;;;;;0.00;0.00;;;7.40;87.60;;;;;;4162153;28;20400;-61
2021/12/24 12:26:41;;;;;;;0.00;0.00;;;7.60;87.80;;;;;;4162436;28;20053;-63
2021/12/24 12:29:16;;;;;;;0.00;0.00;;;7.80;87.20;;;;;;4175467;28;20079;-60
2021/12/24 12:31:38;;;;;;;0.00;0.00;;;7.70;87.90;;;;;;4162168;28;20045;-60
2021/12/24 12:34:02;;;;;;;0.00;0.00;;;7.70;87.30;;;;;;4175593;28;20045;-60
2021/12/24 12:36:39;;;;;;;0.00;0.00;;;7.70;87.50;;;;;;4176190;28;20120;-61
2021/12/24 12:39:25;;;;;;;0.00;0.00;;;7.60;87.80;;;;;;4161875;28;20073;-61
2021/12/24 12:41:48;;;;;;;0.00;0.00;;;7.70;87.50;;;;;;4175344;28;20160;-60
2021/12/24 12:44:15;;;;;;;0.00;0.00;;;7.70;87.80;;;;;;4162329;28;20034;-58
2021/12/24 12:46:41;;;;;;;0.00;0.00;;;7.80;87.70;;;;;;4148545;28;20499;-62
2021/12/24 12:49:06;;;;;;;0.00;0.00;;;7.80;87.40;;;;;;4162181;28;20049;-63
2021/12/24 12:51:52;;;;;;;0.00;0.00;;;7.80;87.40;;;;;;4175703;28;20049;-58
2021/12/24 12:54:42;;;;;;;0.00;0.00;;;7.70;87.80;;;;;;4177915;28;20576;-58
2021/12/24 12:57:12;;;;;;;0.00;0.00;;;7.70;87.10;;;;;;4192246;28;20049;-59
2021/12/24 12:59:34;;;;;;;0.00;0.00;;;7.60;87.20;;;;;;4192232;28;20044;-59
2021/12/24 13:01:57;;;;;;;0.00;0.00;;;7.60;87.20;;;;;;4191488;28;20480;-61
2021/12/24 13:04:20;;;;;;;0.00;0.00;;;7.70;87.10;;;;;;4178443;28;20048;-60
2021/12/24 13:06:42;;;;;;;0.00;0.00;;;7.70;86.90;;;;;;4178235;28;20136;-62
2021/12/24 13:09:07;;;;;;;0.00;0.00;;;7.60;86.50;;;;;;4192080;28;20106;-59
2021/12/24 13:11:34;;;;;;;0.00;0.00;;;7.40;86.70;;;;;;4178018;28;20045;-60
2021/12/24 13:14:01;;;;;;;0.00;0.00;;;7.50;86.80;;;;;;4177480;28;20076;-60
2021/12/24 13:16:33;;;;;;;0.00;0.00;;;7.50;87.00;;;;;;4177962;28;20053;-60
2021/12/24 13:19:21;;;;;;;0.00;0.00;;;7.60;86.90;;;;;;4191781;28;20082;-60
2021/12/24 13:24:38;;;;;;;0.00;0.00;;;7.40;88.40;;;;;;4177502;28;20049;-63
2021/12/24 13:27:03;;;;;;;0.00;0.00;;;7.30;89.00;;;;;;4177988;28;20095;-59
2021/12/24 13:29:27;;;;;;;0.00;0.00;;;7.30;89.60;;;;;;4177912;28;20132;-58
2021/12/24 13:31:57;;;;;;;0.00;0.00;;;7.40;89.60;;;;;;4177286;28;20045;-60
2021/12/24 13:34:20;;;;;;;0.00;0.00;;;7.50;89.70;;;;;;4177827;28;20453;-59
2021/12/24 13:36:42;;;;;;;0.00;0.00;;;7.50;90.00;;;;;;4177901;28;20048;-58
2021/12/24 13:39:19;;;;;;;0.00;0.00;;;7.50;90.00;;;;;;4191409;28;20098;-69
2021/12/24 13:41:44;;;;;;;0.00;0.00;;;7.60;90.00;;;;;;4177678;28;20044;-59
2021/12/24 13:44:29;;;;;;;0.00;0.00;;;7.70;89.70;;;;;;4177172;28;20434;-59
2021/12/24 13:47:40;;;;;;;0.00;0.00;;;7.70;89.60;;;;;;4191816;28;20083;-61
2021/12/24 13:50:22;;;;;;;0.00;0.00;;;7.80;89.30;;;;;;4175245;28;20080;-63
2021/12/24 13:55:30;;;;;;;0.00;0.00;;;7.80;89.00;;;;;;4161243;28;20148;-59
2021/12/24 13:57:58;;;;;;;0.00;0.00;;;7.90;88.80;;;;;;4160676;28;20041;-59
2021/12/24 14:00:22;;;;;;;0.00;0.00;;;8.10;88.70;;;;;;4160936;28;20059;-62
2021/12/24 14:03:11;;;;;;;0.00;0.00;;;8.10;88.70;;;;;;4174797;28;20045;-60
2021/12/24 14:05:50;;;;;;;0.00;0.00;;;8.00;88.80;;;;;;4161165;28;20045;-61
2021/12/24 14:08:18;;;;;;;0.00;0.00;;;7.90;89.40;;;;;;4147049;28;20062;-59
2021/12/24 14:10:42;;;;;;;0.00;0.00;;;7.90;89.40;;;;;;4174762;28;20044;-60
2021/12/24 14:13:09;;;;;;;0.00;0.00;;;7.80;89.20;;;;;;4174591;28;20049;-60
2021/12/24 14:15:44;;;;;;;0.00;0.00;;;7.70;89.60;;;;;;4175361;28;20053;-59
2021/12/24 14:18:30;;;;;;;0.00;0.00;;;7.60;89.70;;;;;;4174014;28;20124;-60
2021/12/24 14:23:42;;;;;;;0.00;0.00;;;7.50;90.00;;;;;;4151243;28;20045;-58
2021/12/24 14:26:05;;;;;;;0.00;0.00;;;7.70;89.60;;;;;;4174541;28;20091;-58
2021/12/24 14:28:27;;;;;;;0.00;0.00;;;7.50;90.00;;;;;;4160918;28;20542;-58
2021/12/24 14:31:04;;;;;;;0.00;0.00;;;7.50;90.30;;;;;;4147006;28;20442;-60
2021/12/24 14:33:28;;;;;;;0.00;0.00;;;7.60;90.40;;;;;;4160444;28;20045;-60
2021/12/24 14:35:52;;;;;;;0.00;0.00;;;7.70;90.10;;;;;;4174042;28;20124;-60